Latest Coastal Weather Observations for Dennes Point

IDT60701

Issued at 8:55 pm EST Tuesday 30 September 2014 (issued every 10 minutes, with the page automatically refreshed every 10 minutes)

About coastal observations | Map of coastal stations | Coastal observations for TAS | Marine services | Other Formats
Station Details ID: 094255 Name: DENNES POINT Lat: -43.06 Lon: 147.36 Height: 5.67 m
Data from the previous 72 hours. | See also: Recent months at Dennes Point
Date/Time
EST
Temp

°C
Wind Pressure Rain
since 9am
mm
Weather Cloud Vis
km
Sea
Height
m
Swell
Dir
 
Speed
knots
Gust
knots
hPa Trend Height
m
Period
s
Dir
30/08:30pm 8.4 W 13 16 1000.3 - 5.6 - - - - - - -
30/08:00pm 8.3 WSW 16 21 999.3 - 5.6 - - - - - - -
30/07:30pm 8.5 W 16 22 998.6 - 5.6 - - - - - - -
30/07:00pm 8.5 WSW 16 20 997.9 - 5.6 - - - - - - -
30/06:30pm 8.9 W 22 32 997.2 - 5.6 - - - - - - -
30/06:00pm 9.7 W 19 26 996.8 - 5.6 - - - - - - -
30/05:36pm 10.5 W 15 26 995.9 - 5.6 - - - - - - -
30/05:30pm 10.6 WSW 13 20 995.7 - 5.6 - - - - - - -
30/05:00pm 11.3 SW 8 11 994.7 - 5.6 - - - - - - -
30/04:30pm 11.8 SSW 5 7 993.9 - 5.6 - - - - - - -
30/04:00pm 11.3 SSW 5 7 993.7 - 5.6 - - - - - - -
30/03:30pm 11.7 SW 5 7 993.1 - 5.6 - - - - - - -
30/03:00pm 10.3 SSW 5 7 993.6 - 5.6 Recent precip. - - - - - -
30/02:30pm 10.5 SW 5 7 994.0 - 5.6 - - - - - - -
30/02:00pm 10.8 SW 10 15 993.8 - 5.4 - - - - - - -
30/01:30pm 11.3 SSW 11 17 994.0 - 1.2 - - - - - - -
30/01:00pm 14.8 SSW 8 11 992.5 - 0.0 - - - - - - -
30/12:30pm 15.0 SSW 7 11 992.9 - 0.0 - - - - - - -
30/12:00pm 16.4 W 7 11 993.4 - 0.0 - - - - - - -
30/11:30am 16.4 W 8 11 994.0 - 0.0 - - - - - - -
30/11:00am 17.0 W 13 23 994.2 - 0.0 - - - - - - -
30/10:30am 17.2 NNW 11 18 994.4 - 0.0 - - - - - - -
30/10:00am 16.8 N 12 19 994.7 - 0.0 - - - - - - -
30/09:30am 15.8 N 7 11 995.2 - 0.0 - - - - - - -
30/09:00am 15.4 N 10 17 995.6 - 0.0 - - - - - - -
30/08:30am 15.4 N 10 14 996.2 - 0.0 - - - - - - -
30/08:00am 15.5 N 10 14 996.6 - 0.0 - - - - - - -
30/07:31am 14.5 N 15 25 996.8 - 0.0 - - - - - - -
30/07:30am 14.4 N 16 25 996.7 - 0.0 - - - - - - -
30/07:00am 14.7 N 20 33 996.3 - 0.0 - - - - - - -
30/06:30am 13.9 N 20 30 996.6 - 0.0 - - - - - - -
30/06:28am 13.9 N 20 30 996.6 - 0.0 - - - - - - -
30/06:00am 14.0 N 19 27 996.9 - 0.0 - - - - - - -
30/05:46am 14.0 N 15 25 997.0 - 0.0 - - - - - - -
30/05:30am 14.0 N 11 15 997.5 - 0.0 - - - - - - -
30/05:00am 14.1 NNW 5 12 997.9 - 0.0 - - - - - - -
30/04:30am 14.6 NNW 10 19 998.2 - 0.0 - - - - - - -
30/04:00am 14.2 N 10 14 998.7 - 0.0 - - - - - - -
30/03:30am 14.4 N 11 17 998.8 - 0.0 - - - - - - -
30/03:00am 14.6 N 9 14 999.2 - 0.0 - - - - - - -
30/02:30am 15.0 N 12 18 999.7 - 0.0 - - - - - - -
30/02:00am 14.8 NNW 10 14 1000.0 - 0.0 - - - - - - -
30/01:30am 14.4 N 6 9 1000.4 - 0.0 - - - - - - -
30/01:00am 14.3 N 10 12 1000.8 - 0.0 - - - - - - -
30/12:30am 13.8 NNE 7 9 1001.2 - 0.0 - - - - - - -
30/12:00am 14.3 NNW 5 13 1001.6 - 0.0 - - - - - - -
 
Date/Time
EST
Temp

°C
Wind Pressure Rain
since 9am
mm
Weather Cloud Vis
km
Sea
Height
m
Swell
Dir
 
Speed
knots
Gust
knots
hPa Trend Height
m
Period
s
Dir
29/11:30pm 13.2 NE 4 6 1001.8 - 0.0 - - - - - - -
29/11:00pm 13.2 NNE 4 7 1002.0 - 0.0 - - - - - - -
29/10:30pm 13.7 NNE 7 10 1002.1 - 0.0 - - - - - - -
29/10:00pm 13.6 N 10 12 1002.5 - 0.0 - - - - - - -
29/09:30pm 13.8 N 10 13 1002.6 - 0.0 - - - - - - -
29/09:00pm 14.0 N 10 15 1002.6 - 0.0 - - - - - - -
29/08:30pm 13.8 N 4 7 1002.8 - 0.0 - - - - - - -
29/08:00pm 13.9 NW 4 9 1002.9 - 0.0 - - - - - - -
29/07:30pm 14.2 NNW 4 7 1002.6 - 0.0 - - - - - - -
29/07:00pm 15.1 WNW 5 7 1002.8 - 0.0 - - - - - - -
29/06:30pm 15.6 WNW 9 13 1002.5 - 0.0 - - - - - - -
29/06:00pm 15.9 NNW 9 12 1002.3 - 0.0 - - - - - - -
29/05:30pm 16.4 NNW 9 13 1002.1 - 0.0 - - - - - - -
29/05:00pm 16.2 NNW 11 14 1001.8 - 0.0 - - - - - - -
29/04:30pm 16.5 NNW 12 17 1001.6 - 0.0 - - - - - - -
29/04:00pm 16.6 N 10 15 1001.5 - 0.0 - - - - - - -
29/03:30pm 17.7 NNW 8 11 1001.6 - 0.0 - - - - - - -
29/03:00pm 18.2 WNW 5 8 1002.1 - 0.0 - - - - - - -
29/02:30pm 18.0 WNW 10 18 1002.4 - 0.0 - - - - - - -
29/02:00pm 18.2 W 15 23 1002.5 - 0.0 - - - - - - -
29/01:30pm 18.1 W 15 25 1002.8 - 0.0 - - - - - - -
29/01:00pm 17.8 WNW 8 15 1003.0 - 0.0 - - - - - - -
29/12:30pm 16.4 NW 9 16 1003.5 - 0.0 - - - - - - -
29/12:00pm 16.1 W 19 28 1003.7 - 0.0 - - - - - - -
29/11:30am 16.1 W 18 26 1003.3 - 0.0 - - - - - - -
29/11:00am 16.2 W 13 18 1003.1 - 0.0 - - - - - - -
29/10:30am 15.2 W 19 26 1003.2 - 0.0 - - - - - - -
29/10:00am 14.6 W 28 40 1003.0 - 0.0 - - - - - - -
29/09:30am 13.9 W 26 39 1002.8 - 0.0 - - - - - - -
29/09:18am 13.6 W 27 37 1002.9 - 0.0 - - - - - - -
29/09:00am 13.2 W 29 38 1002.8 - 0.0 - - - - - - -
29/08:41am 13.5 W 24 37 1002.5 - 0.0 - - - - - - -
29/08:30am 13.2 W 21 27 1002.2 - 0.0 - - - - - - -
29/08:00am 12.7 W 16 20 1002.1 - 0.0 - - - - - - -
29/07:30am 12.1 W 20 29 1001.8 - 0.0 - - - - - - -
29/07:00am 11.7 W 18 23 1001.4 - 0.0 - - - - - - -
29/06:39am 11.7 W 15 24 1001.2 - 0.0 - - - - - - -
29/06:30am 11.4 W 10 13 1001.2 - 0.0 - - - - - - -
29/06:00am 10.6 WNW 5 12 1000.3 - 0.0 - - - - - - -
29/05:30am 10.0 S 5 10 999.7 - 0.0 - - - - - - -
29/05:00am 10.4 NW 4 10 999.3 - 0.0 - - - - - - -
29/04:30am 10.6 W 15 22 998.9 - 0.0 - - - - - - -
29/04:00am 10.8 W 17 22 998.4 - 0.0 - - - - - - -
29/03:30am 12.1 W 15 21 997.3 - 0.0 - - - - - - -
29/03:00am 13.9 NNW 8 11 995.7 - 0.0 - - - - - - -
29/02:30am 13.5 N 9 11 995.3 - 0.0 - - - - - - -
29/02:00am 14.0 N 11 19 995.5 - 0.0 - - - - - - -
29/01:30am 13.9 NW 10 14 996.2 - 0.0 - - - - - - -
29/01:00am 14.4 WNW 13 17 996.3 - 0.0 - - - - - - -
29/12:30am 14.5 WNW 8 13 996.6 - 0.0 - - - - - - -
29/12:00am 14.4 WNW 8 14 996.5 - 0.0 - - - - - - -
 
Date/Time
EST
Temp

°C
Wind Pressure Rain
since 9am
mm
Weather Cloud Vis
km
Sea
Height
m
Swell
Dir
 
Speed
knots
Gust
knots
hPa Trend Height
m
Period
s
Dir
28/11:30pm 15.3 WNW 9 13 996.5 - 0.0 - - - - - - -
28/11:00pm 15.1 SW 2 3 996.4 - 0.0 - - - - - - -
28/10:30pm 15.2 W 2 4 996.6 - 0.0 - - - - - - -
28/10:00pm 15.9 W 8 10 996.7 - 0.0 - - - - - - -
28/09:30pm 14.9 W 6 7 996.8 - 0.0 - - - - - - -
28/09:00pm 17.1 WSW 10 12 997.2 - 0.0 - - - - - - -
28/08:30pm 18.4 NW 9 15 997.0 - 0.0 - - - - - - -
28/08:00pm 19.2 NNW 13 19 997.1 - 0.0 - - - - - - -
28/07:30pm 19.5 NNW 11 14 996.9 - 0.0 - - - - - - -
28/07:00pm 19.4 WSW 6 10 996.6 - 0.0 - - - - - - -
28/06:30pm 19.5 W 10 16 996.3 - 0.0 - - - - - - -
28/06:00pm 21.7 NW 12 19 995.8 - 0.0 - - - - - - -
28/05:47pm 21.6 NW 16 29 995.8 - 0.0 - - - - - - -
28/05:30pm 22.0 NW 15 24 995.7 - 0.0 - - - - - - -
28/05:00pm 21.8 NNW 21 29 995.5 - 0.0 - - - - - - -
28/04:36pm 22.2 NNW 21 31 995.3 - 0.0 - - - - - - -
28/04:30pm 22.1 NW 21 30 995.1 - 0.0 - - - - - - -
28/04:06pm 21.9 NNW 21 32 995.5 - 0.0 - - - - - - -
28/04:00pm 21.4 NNW 21 31 995.4 - 0.0 - - - - - - -
28/03:30pm 22.3 NNW 27 39 995.9 - 0.0 - - - - - - -
28/03:00pm 22.8 NW 23 36 996.9 - 0.0 - - - - - - -
28/02:46pm 23.0 NW 23 34 996.8 - 0.0 - - - - - - -
28/02:45pm 23.3 NW 20 27 996.9 - 0.0 - - - - - - -
28/02:30pm 23.6 NNW 30 44 996.5 - 0.0 - - - - - - -
28/02:00pm 24.2 NW 24 42 996.8 - 0.0 - - - - - - -
28/01:44pm 24.9 WNW 23 46 996.7 - 0.0 - - - - - - -
28/01:30pm 24.7 NW 20 32 996.9 - 0.0 - - - - - - -
28/01:00pm 24.8 NNW 25 35 996.8 - 0.0 - - - - - - -
28/12:30pm 26.4 NNW 26 46 997.3 - 0.0 - - - - - - -
28/12:26pm 26.1 NNW 25 46 997.3 - 0.0 - - - - - - -
28/12:23pm 26.6 NW 21 32 997.4 - 0.0 - - - - - - -
28/12:21pm 25.8 NW 20 28 997.4 - 0.0 - - - - - - -
28/12:07pm 25.7 NNW 31 41 997.7 - 0.0 - - - - - - -
28/12:05pm 26.0 NNW 34 41 997.9 - 0.0 - - - - - - -
28/12:02pm 25.8 NW 22 39 998.0 - 0.0 - - - - - - -
28/12:00pm 26.5 WNW 21 29 997.8 - 0.0 - - - - - - -
28/11:58am 27.1 WNW 20 29 997.7 - 0.0 - - - - - - -
28/11:52am 25.8 NW 24 44 997.9 - 0.0 - - - - - - -
28/11:30am 26.6 NW 20 33 998.0 - 0.0 - - - - - - -
28/11:13am 24.3 NW 16 28 998.5 - 0.0 - - - - - - -
28/11:00am 20.6 N 15 21 998.6 - 0.0 - - - - - - -
28/10:30am 19.0 NNW 9 13 999.4 - 0.0 - - - - - - -
28/10:00am 18.4 N 18 24 999.8 - 0.0 - - - - - - -
28/09:51am 18.0 N 20 31 1000.2 - 0.0 - - - - - - -
28/09:30am 17.9 N 19 25 1000.6 - 0.0 - - - - - - -
28/09:00am 17.8 N 19 24 1001.1 - 0.0 - - - - - - -
28/08:30am 17.2 N 16 21 1001.7 - 0.0 - - - - - - -
28/08:00am 17.7 N 18 25 1002.2 - 0.0 - - - - - - -
28/07:50am 18.3 N 17 24 1002.3 - 0.0 - - - - - - -
28/07:30am 19.3 NNE 7 12 1002.4 - 0.0 - - - - - - -
28/07:00am 18.5 NE 15 20 1002.9 - 0.0 - - - - - - -
28/06:30am 17.9 NNE 12 15 1003.2 - 0.0 - - - - - - -
28/06:00am 20.4 WNW 9 16 1003.3 - 0.0 - - - - - - -
28/05:30am 19.4 NW 6 16 1003.6 - 0.0 - - - - - - -
28/05:00am 17.2 N 11 13 1003.7 - 0.0 - - - - - - -
28/04:30am 16.9 N 9 14 1004.1 - 0.0 - - - - - - -
28/04:00am 16.7 N 11 18 1004.3 - 0.0 - - - - - - -
28/03:30am 16.6 N 8 13 1004.8 - 0.0 - - - - - - -
28/03:00am 15.2 N 4 6 1005.2 - 0.0 - - - - - - -
28/02:30am 15.2 NNE 14 19 1005.7 - 0.0 - - - - - - -
28/02:00am 14.6 N 14 21 1006.5 - 0.0 - - - - - - -
28/01:30am 14.2 N 14 17 1007.2 - 0.0 - - - - - - -
28/01:00am 14.3 N 14 18 1007.9 - 0.0 - - - - - - -
28/12:30am 13.4 NNE 15 20 1008.5 - 0.0 - - - - - - -
28/12:00am 13.5 NE 12 15 1008.9 - 0.0 - - - - - - -
 
Date/Time
EST
Temp

°C
Wind Pressure Rain
since 9am
mm
Weather Cloud Vis
km
Sea
Height
m
Swell
Dir
 
Speed
knots
Gust
knots
hPa Trend Height
m
Period
s
Dir
27/11:30pm 13.6 NE 13 19 1009.5 - 0.0 - - - - - - -
27/11:00pm 13.4 NNE 14 18 1010.1 - 0.0 - - - - - - -
27/10:30pm 13.5 NNE 11 14 1010.9 - 0.0 - - - - - - -
27/10:00pm 13.8 NNE 11 14 1011.2 - 0.0 - - - - - - -
27/09:30pm 13.8 NNE 8 11 1011.6 - 0.0 - - - - - - -
27/09:00pm 13.4 ENE 3 5 1011.9 - 0.0 - - - - - - -

Other Formats:

Comma delimited format used in spreadsheet applications
http://www.bom.gov.au/fwo/IDT60701/IDT60701.94988.axf

JavaScript Object Notation format (JSON) in row-major order
http://www.bom.gov.au/fwo/IDT60701/IDT60701.94988.json